< < Back
Terminal Aerodrome Forecast


Current Version              Previous Versions:   1  2  3  4  5  6  7  8  9  

Terminal Aerodrome Forecast

134
FTUS42 KILM 192300
TAFILM
TAF
KILM 192334Z 2000/2024 06009KT P6SM SCT030 SCT100 BKN200
     FM201600 05011G21KT P6SM VCSH BKN020 BKN100
     FM201900 07012G23KT 3SM SHRA OVC020
     FM202100 05010KT P6SM VCSH SCT020 BKN100=



Latest METAR

351
SAUS70 KWBC 200600 RRF
MTRILM
METAR KILM 200553Z AUTO 03009KT 10SM BKN100 19/17 A3015 RMK AO2 SLP209
T01940167 10222 20194 58006


USA.gov is the U.S. government's official web portal to all federal, state and local government web resources and services.